createdAt,value
2023-04-08T00:01:05.214Z,99806.16
2023-04-08T00:03:33.193Z,99806.97
2023-04-08T00:06:02.669Z,99806.38
2023-04-08T00:08:30.671Z,99809.34
2023-04-08T00:10:58.346Z,99806.59
2023-04-08T00:13:26.222Z,99799.50
2023-04-08T00:15:53.771Z,99805.44
2023-04-08T00:18:22.490Z,99810.91
2023-04-08T00:20:49.994Z,99804.81
2023-04-08T00:23:17.447Z,99811.09
2023-04-08T00:25:45.528Z,99808.63
2023-04-08T00:28:12.922Z,99816.19
2023-04-08T00:30:40.756Z,99810.97
2023-04-08T00:33:08.914Z,99811.22
2023-04-08T00:35:36.663Z,99802.44
2023-04-08T00:38:07.902Z,99804.34
2023-04-08T00:40:35.705Z,99799.94
2023-04-08T00:43:03.131Z,99803.75
2023-04-08T00:45:30.631Z,99804.81
2023-04-08T00:47:58.430Z,99810.50
2023-04-08T00:50:26.329Z,99808.00
2023-04-08T00:52:53.775Z,99812.63
2023-04-08T00:55:21.599Z,99815.56
2023-04-08T00:57:49.051Z,99810.34
2023-04-08T01:00:16.700Z,99813.09
2023-04-08T01:03:10.073Z,99810.34
2023-04-08T01:06:05.662Z,99815.22
2023-04-08T01:08:33.389Z,99810.34
2023-04-08T01:11:02.068Z,99812.72
2023-04-08T01:13:31.505Z,99811.06
2023-04-08T01:15:59.499Z,99812.13
2023-04-08T01:18:27.119Z,99814.03
2023-04-08T01:20:54.567Z,99817.81
2023-04-08T01:24:02.236Z,99814.28
2023-04-08T01:26:29.720Z,99814.03
2023-04-08T01:28:58.443Z,99812.25
2023-04-08T01:31:26.249Z,99814.34
2023-04-08T01:33:53.872Z,99806.19
2023-04-08T01:36:22.826Z,99807.22
2023-04-08T01:38:50.497Z,99815.19
2023-04-08T01:41:18.547Z,99812.66
2023-04-08T01:43:46.216Z,99812.91
2023-04-08T01:46:13.738Z,99810.19
2023-04-08T01:48:41.660Z,99807.66
2023-04-08T01:51:09.364Z,99819.41
2023-04-08T01:53:36.805Z,99805.19
2023-04-08T01:56:11.046Z,99804.34
2023-04-08T01:58:47.608Z,99805.44
2023-04-08T02:01:17.481Z,99805.44
2023-04-08T02:03:45.657Z,99807.28
2023-04-08T02:06:14.500Z,99802.91
2023-04-08T02:08:41.961Z,99808.34
2023-04-08T02:11:10.330Z,99804.81
2023-04-08T02:13:37.788Z,99809.44
2023-04-08T02:16:38.980Z,99807.97
2023-04-08T02:19:14.593Z,99807.53
2023-04-08T02:21:46.907Z,99810.72
2023-04-08T02:24:14.553Z,99806.56
2023-04-08T02:26:42.810Z,99799.47
2023-04-08T02:29:12.828Z,99809.53
2023-04-08T02:31:41.502Z,99808.69
2023-04-08T02:34:10.460Z,99801.84
2023-04-08T02:36:39.084Z,99804.91
2023-04-08T02:39:07.153Z,99804.53
2023-04-08T02:41:34.967Z,99806.44
2023-04-08T02:44:02.390Z,99801.22
2023-04-08T02:46:30.814Z,99799.53
2023-04-08T02:48:58.903Z,99798.72
2023-04-08T02:51:26.506Z,99797.88
2023-04-08T02:53:54.202Z,99801.69
2023-04-08T02:56:21.899Z,99803.78
2023-04-08T02:58:49.629Z,99798.34
2023-04-08T03:01:17.685Z,99807.38
2023-04-08T03:03:45.687Z,99808.41
2023-04-08T03:06:13.264Z,99807.59
2023-04-08T03:08:40.695Z,99806.75
2023-04-08T03:11:08.481Z,99813.03
2023-04-08T03:13:36.182Z,99805.94
2023-04-08T03:16:03.799Z,99813.28
2023-04-08T03:18:31.554Z,99802.59
2023-04-08T03:20:59.010Z,99805.34
2023-04-08T03:23:26.641Z,99808.28
2023-04-08T03:25:54.474Z,99811.00
2023-04-08T03:28:22.002Z,99811.81
2023-04-08T03:30:49.644Z,99813.72
2023-04-08T03:33:17.342Z,99813.13
2023-04-08T03:35:44.900Z,99815.03
2023-04-08T03:38:12.349Z,99810.63
2023-04-08T03:40:40.093Z,99813.59
2023-04-08T03:43:08.851Z,99819.03
2023-04-08T03:45:36.459Z,99828.03
2023-04-08T03:48:04.491Z,99823.66
2023-04-08T03:50:31.986Z,99827.44
2023-04-08T03:52:59.405Z,99826.63
2023-04-08T03:55:27.107Z,99832.06
2023-04-08T03:57:54.532Z,99833.97
2023-04-08T04:00:21.984Z,99840.47
2023-04-08T04:02:49.770Z,99836.06
2023-04-08T04:05:17.373Z,99836.91
2023-04-08T04:07:44.802Z,99840.69
2023-04-08T04:10:12.719Z,99839.03
2023-04-08T04:12:40.259Z,99846.38
2023-04-08T04:15:08.011Z,99851.84
2023-04-08T04:17:35.890Z,99851.00
2023-04-08T04:20:07.036Z,99857.28
2023-04-08T04:22:34.524Z,99851.84
2023-04-08T04:25:02.281Z,99849.31
2023-04-08T04:27:29.734Z,99853.94
2023-04-08T04:29:57.173Z,99862.13
2023-04-08T04:32:25.131Z,99860.47
2023-04-08T04:34:52.579Z,99855.84
2023-04-08T04:37:20.162Z,99859.62
2023-04-08T04:39:47.899Z,99855.25
2023-04-08T04:42:15.641Z,99865.31
2023-04-08T04:44:43.131Z,99857.97
2023-04-08T04:47:10.912Z,99859.00
2023-04-08T04:49:40.213Z,99859.00
2023-04-08T04:52:07.622Z,99856.53
2023-04-08T04:54:35.515Z,99862.78
2023-04-08T04:57:02.976Z,99862.78
2023-04-08T04:59:30.723Z,99862.22
2023-04-08T05:01:58.576Z,99869.56
2023-04-08T05:04:26.350Z,99873.34
2023-04-08T05:06:53.826Z,99866.22
2023-04-08T05:09:21.595Z,99862.66
2023-04-08T05:11:49.054Z,99870.81
2023-04-08T05:14:16.485Z,99861.00
2023-04-08T05:16:44.239Z,99871.06
2023-04-08T05:19:11.673Z,99872.13
2023-04-08T05:21:39.098Z,99874.84
2023-04-08T05:24:06.801Z,99872.34
2023-04-08T05:26:34.378Z,99876.97
2023-04-08T05:29:01.788Z,99883.22
2023-04-08T05:31:29.636Z,99885.97
2023-04-08T05:33:57.242Z,99891.41
2023-04-08T05:36:24.749Z,99893.53
2023-04-08T05:38:52.789Z,99889.75
2023-04-08T05:41:21.408Z,99895.19
2023-04-08T05:43:48.863Z,99895.19
2023-04-08T05:46:16.766Z,99901.72
2023-04-08T05:48:44.211Z,99904.66
2023-04-08T05:51:15.517Z,99897.34
2023-04-08T05:53:43.358Z,99910.13
2023-04-08T05:56:10.763Z,99909.25
2023-04-08T05:58:38.229Z,99904.88
2023-04-08T06:01:07.375Z,99906.78
2023-04-08T06:03:35.251Z,99911.16
2023-04-08T06:06:02.862Z,99909.25
2023-04-08T06:08:31.824Z,99909.50
2023-04-08T06:10:59.540Z,99917.66
2023-04-08T06:13:27.195Z,99914.94
2023-04-08T06:15:54.696Z,99912.22
2023-04-08T06:18:22.458Z,99917.06
2023-04-08T06:20:50.608Z,99911.63
2023-04-08T06:23:18.024Z,99917.06
2023-04-08T06:25:46.164Z,99918.97
2023-04-08T06:28:13.582Z,99918.09
2023-04-08T06:30:41.019Z,99926.28
2023-04-08T06:33:08.753Z,99928.19
2023-04-08T06:35:37.833Z,99930.06
2023-04-08T06:38:05.442Z,99931.97
2023-04-08T06:40:33.178Z,99928.19
2023-04-08T06:43:00.862Z,99927.59
2023-04-08T06:45:29.203Z,99927.34
2023-04-08T06:47:57.049Z,99928.66
2023-04-08T06:50:24.464Z,99933.03
2023-04-08T06:52:51.937Z,99939.31
2023-04-08T06:55:19.773Z,99936.59
2023-04-08T06:57:47.192Z,99942.28
2023-04-08T07:00:14.776Z,99943.09
2023-04-08T07:02:42.641Z,99943.09
2023-04-08T07:05:10.250Z,99950.44
2023-04-08T07:07:38.135Z,99947.72
2023-04-08T07:10:07.284Z,99945.81
2023-04-08T07:12:36.281Z,99944.16
2023-04-08T07:15:04.109Z,99949.63
2023-04-08T07:17:32.482Z,99949.63
2023-04-08T07:19:59.996Z,99954.19
2023-04-08T07:22:27.488Z,99958.78
2023-04-08T07:24:55.349Z,99962.37
2023-04-08T07:27:22.769Z,99961.50
2023-04-08T07:29:54.443Z,99956.06
2023-04-08T07:32:22.218Z,99966.34
2023-04-08T07:34:51.068Z,99971.56
2023-04-08T07:37:18.557Z,99971.56
2023-04-08T07:39:46.429Z,99976.44
2023-04-08T07:42:13.880Z,99981.03
2023-04-08T07:44:41.346Z,99981.03
2023-04-08T07:47:09.432Z,99983.78
2023-04-08T07:49:36.898Z,99984.81
2023-04-08T07:52:06.329Z,99994.66
2023-04-08T07:54:36.784Z,99996.56
2023-04-08T07:57:04.362Z,99993.84
2023-04-08T07:59:32.237Z,99992.97
2023-04-08T08:02:00.086Z,99996.75
2023-04-08T08:04:28.199Z,99993.22
2023-04-08T08:06:55.988Z,99985.03
2023-04-08T08:09:23.428Z,99981.25
2023-04-08T08:11:51.194Z,99985.03
2023-04-08T08:14:18.704Z,99986.09
2023-04-08T08:16:46.169Z,99981.47
2023-04-08T08:19:14.630Z,99982.53
2023-04-08T08:21:42.123Z,99987.16
2023-04-08T08:24:09.721Z,99988.19
2023-04-08T08:26:37.490Z,99997.22
2023-04-08T08:29:05.206Z,100002.87
2023-04-08T08:31:32.742Z,100004.75
2023-04-08T08:34:01.165Z,100012.94
2023-04-08T08:36:29.112Z,100023.00
2023-04-08T08:38:56.671Z,100014.00
2023-04-08T08:41:24.491Z,100022.16
2023-04-08T08:43:52.108Z,100024.06
2023-04-08T08:46:19.917Z,100025.62
2023-04-08T08:48:47.627Z,100027.94
2023-04-08T08:51:15.540Z,100022.28
2023-04-08T08:53:46.180Z,100023.72
2023-04-08T08:56:18.412Z,100028.06
2023-04-08T08:58:48.415Z,100033.66
2023-04-08T09:01:35.295Z,100031.97
2023-04-08T09:04:20.353Z,100029.38
2023-04-08T09:07:08.807Z,100034.94
2023-04-08T09:09:50.391Z,100035.84
2023-04-08T09:12:18.731Z,100039.75
2023-04-08T09:14:46.563Z,100044.06
2023-04-08T09:17:14.149Z,100042.72
2023-04-08T09:20:15.078Z,100043.25
2023-04-08T09:23:01.713Z,100040.19
2023-04-08T09:25:33.243Z,100045.72
2023-04-08T09:28:02.138Z,100049.19
2023-04-08T09:30:30.568Z,100048.03
2023-04-08T09:32:58.072Z,100043.13
2023-04-08T09:35:26.009Z,100052.28
2023-04-08T09:37:54.034Z,100054.56
2023-04-08T09:40:21.723Z,100051.34
2023-04-08T09:42:54.155Z,100056.09
2023-04-08T09:45:21.934Z,100057.78
2023-04-08T09:48:01.574Z,100052.94
2023-04-08T09:50:31.721Z,100057.06
2023-04-08T09:53:16.017Z,100056.78
2023-04-08T09:55:43.711Z,100057.69
2023-04-08T09:58:34.490Z,100056.25
2023-04-08T10:01:02.296Z,100060.87
2023-04-08T10:03:33.883Z,100057.56
2023-04-08T10:06:01.800Z,100055.91
2023-04-08T10:08:29.415Z,100062.41
2023-04-08T10:10:57.519Z,100067.84
2023-04-08T10:13:25.072Z,100071.41
2023-04-08T10:15:54.743Z,100071.91
2023-04-08T10:18:22.364Z,100069.38
2023-04-08T10:20:49.943Z,100067.13
2023-04-08T10:23:18.084Z,100070.06
2023-04-08T10:25:47.827Z,100069.25
2023-04-08T10:28:16.316Z,100068.66
2023-04-08T10:30:46.996Z,100068.88
2023-04-08T10:33:18.195Z,100070.16
2023-04-08T10:35:49.144Z,100077.75
2023-04-08T10:38:17.070Z,100076.06
2023-04-08T10:40:44.625Z,100069.19
2023-04-08T10:43:12.816Z,100076.75
2023-04-08T10:45:41.187Z,100067.97
2023-04-08T10:48:18.816Z,100070.13
2023-04-08T10:50:54.610Z,100071.16
2023-04-08T10:53:31.594Z,100074.13
2023-04-08T10:56:09.615Z,100065.34
2023-04-08T10:58:37.073Z,100068.28
2023-04-08T11:01:08.437Z,100075.88
2023-04-08T11:03:37.037Z,100074.41
2023-04-08T11:06:05.415Z,100074.66
2023-04-08T11:08:33.377Z,100075.50
2023-04-08T11:11:05.440Z,100081.19
2023-04-08T11:13:33.210Z,100079.50
2023-04-08T11:16:00.896Z,100075.09
2023-04-08T11:18:28.706Z,100069.66
2023-04-08T11:20:58.365Z,100076.41
2023-04-08T11:23:27.621Z,100078.31
2023-04-08T11:25:55.600Z,100084.81
2023-04-08T11:28:23.301Z,100078.50
2023-04-08T11:30:50.772Z,100077.69
2023-04-08T11:33:18.728Z,100082.31
2023-04-08T11:35:46.491Z,100077.09
2023-04-08T11:38:13.965Z,100085.28
2023-04-08T11:40:41.442Z,100088.00
2023-04-08T11:43:13.008Z,100089.28
2023-04-08T11:45:40.806Z,100091.16
2023-04-08T11:48:12.624Z,100093.91
2023-04-08T11:50:41.848Z,100087.63
2023-04-08T11:53:23.502Z,100085.94
2023-04-08T11:55:51.341Z,100084.87
2023-04-08T11:58:18.773Z,100088.69
2023-04-08T12:00:46.396Z,100081.56
2023-04-08T12:03:14.310Z,100086.16
2023-04-08T12:05:42.690Z,100089.13
2023-04-08T12:08:10.242Z,100079.03
2023-04-08T12:10:38.004Z,100081.75
2023-04-08T12:13:05.422Z,100083.91
2023-04-08T12:15:32.902Z,100078.44
2023-04-08T12:18:00.673Z,100083.06
2023-04-08T12:20:28.123Z,100081.37
2023-04-08T12:22:55.702Z,100078.66
2023-04-08T12:25:23.570Z,100086.25
2023-04-08T12:27:51.020Z,100083.50
2023-04-08T12:30:18.537Z,100078.88
2023-04-08T12:32:47.620Z,100083.50
2023-04-08T12:35:15.435Z,100085.38
2023-04-08T12:37:42.892Z,100085.38
2023-04-08T12:40:11.052Z,100088.09
2023-04-08T12:42:38.541Z,100081.44
2023-04-08T12:45:06.664Z,100082.50
2023-04-08T12:47:34.435Z,100089.22
2023-04-08T12:50:02.183Z,100077.47
2023-04-08T12:52:29.685Z,100079.62
2023-04-08T12:54:57.446Z,100086.34
2023-04-08T12:57:24.846Z,100082.78
2023-04-08T12:59:52.296Z,100088.66
2023-04-08T13:02:20.127Z,100077.16
2023-04-08T13:04:47.663Z,100078.44
2023-04-08T13:07:15.427Z,100078.69
2023-04-08T13:09:45.359Z,100079.97
2023-04-08T13:12:13.179Z,100091.72
2023-04-08T13:14:40.726Z,100079.06
2023-04-08T13:17:08.475Z,100077.44
2023-04-08T13:19:36.334Z,100080.03
2023-04-08T13:22:03.845Z,100073.12
2023-04-08T13:24:31.573Z,100075.25
2023-04-08T13:26:59.253Z,100070.63
2023-04-08T13:29:26.683Z,100070.22
2023-04-08T13:31:54.507Z,100073.19
2023-04-08T13:34:21.968Z,100076.97
2023-04-08T13:36:49.438Z,100077.19
2023-04-08T13:39:17.152Z,100073.84
2023-04-08T13:41:44.659Z,100076.56
2023-04-08T13:44:12.165Z,100069.47
2023-04-08T13:46:39.899Z,100075.16
2023-04-08T13:49:07.532Z,100066.97
2023-04-08T13:51:35.036Z,100064.44
2023-04-08T13:54:02.758Z,100065.50
2023-04-08T13:56:30.840Z,100060.28
2023-04-08T13:58:58.344Z,100074.75
2023-04-08T14:01:26.162Z,100069.53
2023-04-08T14:03:54.125Z,100070.56
2023-04-08T14:06:21.627Z,100066.19
2023-04-08T14:08:49.292Z,100068.91
2023-04-08T14:11:17.211Z,100068.31
2023-04-08T14:13:44.634Z,100071.22
2023-04-08T14:16:12.317Z,100067.91
2023-04-08T14:18:40.467Z,100075.25
2023-04-08T14:21:08.026Z,100072.53
2023-04-08T14:23:35.877Z,100070.00
2023-04-08T14:26:03.649Z,100074.63
2023-04-08T14:28:31.132Z,100077.56
2023-04-08T14:30:58.620Z,100075.69
2023-04-08T14:33:27.287Z,100077.56
2023-04-08T14:35:54.812Z,100077.81
2023-04-08T14:38:23.059Z,100082.44
2023-04-08T14:40:50.837Z,100073.63
2023-04-08T14:43:18.388Z,100082.84
2023-04-08T14:45:45.835Z,100073.84
2023-04-08T14:48:13.592Z,100073.84
2023-04-08T14:50:41.125Z,100082.03
2023-04-08T14:53:08.573Z,100081.19
2023-04-08T14:55:36.269Z,100078.25
2023-04-08T14:58:03.729Z,100076.31
2023-04-08T15:00:31.144Z,100072.03
2023-04-08T15:02:59.097Z,100077.13
2023-04-08T15:05:26.669Z,100072.38
2023-04-08T15:07:54.175Z,100075.00
2023-04-08T15:10:21.863Z,100068.59
2023-04-08T15:12:49.288Z,100071.16
2023-04-08T15:15:16.810Z,100074.22
2023-04-08T15:17:44.671Z,100069.25
2023-04-08T15:20:13.438Z,100075.47
2023-04-08T15:22:41.193Z,100069.72
2023-04-08T15:25:09.450Z,100066.31
2023-04-08T15:27:37.609Z,100066.66
2023-04-08T15:30:08.053Z,100072.50
2023-04-08T15:32:35.822Z,100073.12
2023-04-08T15:35:03.400Z,100067.41
2023-04-08T15:37:30.925Z,100075.34
2023-04-08T15:39:58.626Z,100079.78
2023-04-08T15:42:26.180Z,100079.78
2023-04-08T15:44:53.568Z,100080.00
2023-04-08T15:47:21.293Z,100085.69
2023-04-08T15:49:52.032Z,100090.31
2023-04-08T15:52:19.476Z,100083.41
2023-04-08T15:54:47.309Z,100090.19
2023-04-08T15:57:16.246Z,100087.66
2023-04-08T15:59:43.912Z,100086.25
2023-04-08T16:02:11.724Z,100086.69
2023-04-08T16:04:39.796Z,100083.38
2023-04-08T16:07:07.546Z,100089.28
2023-04-08T16:09:35.809Z,100089.50
2023-04-08T16:12:03.681Z,100094.59
2023-04-08T16:14:31.139Z,100100.50
2023-04-08T16:17:00.056Z,100095.50
2023-04-08T16:19:28.310Z,100105.81
2023-04-08T16:21:55.976Z,100100.56
2023-04-08T16:24:23.428Z,100104.81
2023-04-08T16:26:51.269Z,100106.09
2023-04-08T16:29:18.742Z,100106.56
2023-04-08T16:31:46.202Z,100104.03
2023-04-08T16:34:14.010Z,100110.19
2023-04-08T16:36:41.697Z,100111.47
2023-04-08T16:39:09.542Z,100115.47
2023-04-08T16:41:37.256Z,100121.41
2023-04-08T16:44:04.975Z,100113.91
2023-04-08T16:46:32.975Z,100116.00
2023-04-08T16:49:01.324Z,100120.84
2023-04-08T16:51:28.974Z,100120.19
2023-04-08T16:53:58.771Z,100121.50
2023-04-08T16:56:27.350Z,100121.94
2023-04-08T16:58:55.066Z,100127.63
2023-04-08T17:01:22.602Z,100125.13
2023-04-08T17:03:52.303Z,100134.59
2023-04-08T17:06:20.128Z,100130.19
2023-04-08T17:08:47.656Z,100130.78
2023-04-08T17:11:15.597Z,100137.91
2023-04-08T17:13:43.985Z,100141.69
2023-04-08T17:16:15.716Z,100148.81
2023-04-08T17:18:43.857Z,100153.44
2023-04-08T17:21:12.379Z,100148.81
2023-04-08T17:23:40.141Z,100159.72
2023-04-08T17:26:08.703Z,100148.63
2023-04-08T17:28:36.155Z,100165.81
2023-04-08T17:31:03.682Z,100166.88
2023-04-08T17:33:31.555Z,100164.16
2023-04-08T17:35:59.191Z,100170.03
2023-04-08T17:38:26.712Z,100178.22
2023-04-08T17:40:54.431Z,100168.12
2023-04-08T17:43:22.128Z,100166.47
2023-04-08T17:45:50.555Z,100176.56
2023-04-08T17:48:18.819Z,100171.09
2023-04-08T17:50:46.349Z,100179.28
2023-04-08T17:53:13.808Z,100171.09
2023-04-08T17:55:43.811Z,100182.22
2023-04-08T17:58:11.525Z,100183.06
2023-04-08T18:00:39.065Z,100181.38
2023-04-08T18:03:07.004Z,100191.44
2023-04-08T18:05:34.669Z,100183.28
2023-04-08T18:08:02.122Z,100185.16
2023-04-08T18:10:29.916Z,100186.22
2023-04-08T18:13:07.903Z,100197.13
2023-04-08T18:15:38.925Z,100195.47
2023-04-08T18:18:06.324Z,100193.81
2023-04-08T18:20:37.138Z,100194.00
2023-04-08T18:23:05.032Z,100198.88
2023-04-08T18:25:32.716Z,100198.03
2023-04-08T18:28:00.285Z,100202.84
2023-04-08T18:30:28.074Z,100203.09
2023-04-08T18:32:56.148Z,100206.87
2023-04-08T18:35:24.633Z,100207.06
2023-04-08T18:37:52.349Z,100209.19
2023-04-08T18:40:20.182Z,100211.28
2023-04-08T18:42:47.608Z,100209.44
2023-04-08T18:45:15.422Z,100212.34
2023-04-08T18:47:43.721Z,100218.03
2023-04-08T18:50:11.975Z,100214.47
2023-04-08T18:52:39.746Z,100219.69
2023-04-08T18:55:07.194Z,100217.81
2023-04-08T18:57:34.687Z,100220.53
2023-04-08T19:00:02.635Z,100220.75
2023-04-08T19:02:30.880Z,100222.66
2023-04-08T19:04:58.574Z,100222.66
2023-04-08T19:07:27.366Z,100224.53
2023-04-08T19:10:00.946Z,100224.53
2023-04-08T19:12:28.645Z,100222.03
2023-04-08T19:14:56.186Z,100227.47
2023-04-08T19:17:23.784Z,100225.81
2023-04-08T19:19:51.878Z,100220.34
2023-04-08T19:22:19.334Z,100227.69
2023-04-08T19:24:47.119Z,100223.91
2023-04-08T19:27:14.853Z,100229.59
2023-04-08T19:29:42.294Z,100228.75
2023-04-08T19:32:09.859Z,100229.81
2023-04-08T19:34:38.477Z,100228.97
2023-04-08T19:37:06.771Z,100238.00
2023-04-08T19:39:34.234Z,100234.22
2023-04-08T19:42:02.064Z,100240.72
2023-04-08T19:44:29.496Z,100240.94
2023-04-08T19:46:57.909Z,100240.94
2023-04-08T19:49:25.789Z,100239.03
2023-04-08T19:51:53.298Z,100240.94
2023-04-08T19:54:21.735Z,100243.66
2023-04-08T19:56:49.568Z,100240.94
2023-04-08T19:59:17.090Z,100240.94
2023-04-08T20:01:44.657Z,100240.09
2023-04-08T20:04:12.605Z,100247.22
2023-04-08T20:06:40.323Z,100245.53
2023-04-08T20:09:07.786Z,100240.09
2023-04-08T20:11:35.664Z,100249.34
2023-04-08T20:14:03.822Z,100246.84
2023-04-08T20:16:31.978Z,100250.59
2023-04-08T20:18:59.911Z,100244.53
2023-04-08T20:21:27.866Z,100251.03
2023-04-08T20:23:55.714Z,100242.25
2023-04-08T20:26:23.414Z,100244.34
2023-04-08T20:28:51.009Z,100242.69
2023-04-08T20:31:19.317Z,100248.16
2023-04-08T20:33:47.072Z,100250.03
2023-04-08T20:36:14.565Z,100254.84
2023-04-08T20:38:42.630Z,100255.91
2023-04-08T20:41:10.616Z,100244.19
2023-04-08T20:43:39.432Z,100255.06
2023-04-08T20:46:07.567Z,100254.25
2023-04-08T20:48:36.133Z,100252.56
2023-04-08T20:51:03.578Z,100255.28
2023-04-08T20:53:31.516Z,100251.72
2023-04-08T20:55:59.528Z,100259.91
2023-04-08T20:58:27.040Z,100261.78
2023-04-08T21:00:54.510Z,100257.41
2023-04-08T21:03:22.390Z,100259.28
2023-04-08T21:05:50.281Z,100261.19
2023-04-08T21:08:17.692Z,100263.06
2023-04-08T21:10:45.511Z,100264.97
2023-04-08T21:13:13.038Z,100267.69
2023-04-08T21:15:40.584Z,100266.81
2023-04-08T21:18:11.078Z,100267.87
2023-04-08T21:20:41.726Z,100268.72
2023-04-08T21:23:09.445Z,100264.31
2023-04-08T21:25:36.911Z,100264.09
2023-04-08T21:28:04.333Z,100266.81
2023-04-08T21:30:32.066Z,100264.31
2023-04-08T21:32:59.546Z,100265.38
2023-04-08T21:35:27.064Z,100272.72
2023-04-08T21:37:54.986Z,100273.78
2023-04-08T21:40:22.417Z,100276.50
2023-04-08T21:42:49.859Z,100266.59
2023-04-08T21:45:17.868Z,100264.94
2023-04-08T21:47:46.067Z,100264.94
2023-04-08T21:50:13.554Z,100265.16
2023-04-08T21:52:43.565Z,100270.63
2023-04-08T21:55:11.499Z,100262.66
2023-04-08T21:57:39.366Z,100267.25
2023-04-08T22:00:13.167Z,100267.25
2023-04-08T22:02:43.048Z,100272.94
2023-04-08T22:05:11.551Z,100269.38
2023-04-08T22:07:39.048Z,100265.81
2023-04-08T22:10:07.423Z,100270.22
2023-04-08T22:12:35.138Z,100266.66
2023-04-08T22:15:03.001Z,100264.16
2023-04-08T22:17:30.709Z,100266.88
2023-04-08T22:19:58.446Z,100266.88
2023-04-08T22:22:25.960Z,100267.06
2023-04-08T22:24:53.369Z,100267.91
2023-04-08T22:27:21.212Z,100267.06
2023-04-08T22:29:48.686Z,100271.69
2023-04-08T22:32:18.160Z,100266.47
2023-04-08T22:34:45.978Z,100276.31
2023-04-08T22:37:13.644Z,100268.13
2023-04-08T22:39:41.301Z,100270.03
2023-04-08T22:42:09.036Z,100268.34
2023-04-08T22:44:36.445Z,100265.84
2023-04-08T22:47:03.900Z,100268.56
2023-04-08T22:49:33.781Z,100266.06
2023-04-08T22:52:01.256Z,100268.56
2023-04-08T22:54:28.678Z,100265.00
2023-04-08T22:56:56.656Z,100262.28
2023-04-08T22:59:24.120Z,100270.44
2023-04-08T23:01:51.575Z,100269.62
2023-04-08T23:04:19.476Z,100276.94
2023-04-08T23:06:47.250Z,100272.56
2023-04-08T23:09:14.760Z,100267.34
2023-04-08T23:11:42.436Z,100271.72
2023-04-08T23:14:11.064Z,100274.66
2023-04-08T23:16:38.585Z,100278.44
2023-04-08T23:19:06.297Z,100279.25
2023-04-08T23:21:33.727Z,100265.88
2023-04-08T23:24:01.190Z,100269.19
2023-04-08T23:26:29.261Z,100272.97
2023-04-08T23:28:57.322Z,100275.69
2023-04-08T23:31:24.854Z,100269.44
2023-04-08T23:33:52.634Z,100270.25
2023-04-08T23:36:20.094Z,100279.25
2023-04-08T23:38:47.511Z,100266.94
2023-04-08T23:41:18.094Z,100267.97
2023-04-08T23:43:46.206Z,100268.81
2023-04-08T23:46:13.732Z,100270.72
2023-04-08T23:48:41.628Z,100271.72
2023-04-08T23:51:09.036Z,100272.56
2023-04-08T23:53:36.469Z,100273.63
2023-04-08T23:56:08.243Z,100269.00
2023-04-08T23:58:35.893Z,100270.06
